sensor_id;sensor_type;location;lat;lon;timestamp;P1;durP1;ratioP1;P2;durP2;ratioP2
60726;SDS011;46577;49.004;12.120;2023-08-31T00:01:35;17.30;;;13.07;;
60726;SDS011;46577;49.004;12.120;2023-08-31T00:04:01;22.87;;;13.33;;
60726;SDS011;46577;49.004;12.120;2023-08-31T00:06:27;16.77;;;12.63;;
60726;SDS011;46577;49.004;12.120;2023-08-31T00:08:53;21.63;;;12.60;;
60726;SDS011;46577;49.004;12.120;2023-08-31T00:11:19;17.20;;;12.10;;
60726;SDS011;46577;49.004;12.120;2023-08-31T00:13:46;15.47;;;11.83;;
60726;SDS011;46577;49.004;12.120;2023-08-31T00:16:12;13.73;;;10.40;;
60726;SDS011;46577;49.004;12.120;2023-08-31T00:18:38;10.60;;;9.33;;
60726;SDS011;46577;49.004;12.120;2023-08-31T00:21:04;10.30;;;7.40;;
60726;SDS011;46577;49.004;12.120;2023-08-31T00:23:30;14.37;;;8.67;;
60726;SDS011;46577;49.004;12.120;2023-08-31T00:25:56;10.43;;;8.27;;
60726;SDS011;46577;49.004;12.120;2023-08-31T00:28:22;8.83;;;7.53;;
60726;SDS011;46577;49.004;12.120;2023-08-31T00:30:50;7.90;;;5.27;;
60726;SDS011;46577;49.004;12.120;2023-08-31T00:33:16;6.83;;;4.67;;
60726;SDS011;46577;49.004;12.120;2023-08-31T00:35:42;4.30;;;3.57;;
60726;SDS011;46577;49.004;12.120;2023-08-31T00:38:12;8.97;;;4.47;;
60726;SDS011;46577;49.004;12.120;2023-08-31T00:40:42;6.03;;;4.17;;
60726;SDS011;46577;49.004;12.120;2023-08-31T00:43:09;9.00;;;4.37;;
60726;SDS011;46577;49.004;12.120;2023-08-31T00:45:35;5.07;;;3.57;;
60726;SDS011;46577;49.004;12.120;2023-08-31T00:48:02;4.60;;;3.80;;
60726;SDS011;46577;49.004;12.120;2023-08-31T00:50:28;5.03;;;4.20;;
60726;SDS011;46577;49.004;12.120;2023-08-31T00:52:54;5.47;;;4.07;;
60726;SDS011;46577;49.004;12.120;2023-08-31T00:55:21;6.10;;;4.30;;
60726;SDS011;46577;49.004;12.120;2023-08-31T00:57:47;5.47;;;3.90;;
60726;SDS011;46577;49.004;12.120;2023-08-31T01:00:13;4.70;;;4.20;;
60726;SDS011;46577;49.004;12.120;2023-08-31T01:05:13;4.53;;;3.90;;
60726;SDS011;46577;49.004;12.120;2023-08-31T01:13:10;4.70;;;4.00;;
60726;SDS011;46577;49.004;12.120;2023-08-31T01:15:39;4.20;;;3.80;;
60726;SDS011;46577;49.004;12.120;2023-08-31T01:18:06;3.97;;;3.57;;
60726;SDS011;46577;49.004;12.120;2023-08-31T01:20:37;9.77;;;3.70;;
60726;SDS011;46577;49.004;12.120;2023-08-31T01:23:06;4.80;;;3.40;;
60726;SDS011;46577;49.004;12.120;2023-08-31T01:25:33;3.17;;;2.80;;
60726;SDS011;46577;49.004;12.120;2023-08-31T01:28:00;3.63;;;3.30;;
60726;SDS011;46577;49.004;12.120;2023-08-31T01:30:29;10.27;;;3.10;;
60726;SDS011;46577;49.004;12.120;2023-08-31T01:32:56;3.83;;;3.13;;
60726;SDS011;46577;49.004;12.120;2023-08-31T01:35:22;7.13;;;4.03;;
60726;SDS011;46577;49.004;12.120;2023-08-31T01:37:53;3.63;;;3.27;;
60726;SDS011;46577;49.004;12.120;2023-08-31T01:40:21;3.60;;;3.30;;
60726;SDS011;46577;49.004;12.120;2023-08-31T01:42:49;5.17;;;3.80;;
60726;SDS011;46577;49.004;12.120;2023-08-31T01:45:18;8.43;;;3.23;;
60726;SDS011;46577;49.004;12.120;2023-08-31T01:47:45;5.77;;;4.20;;
60726;SDS011;46577;49.004;12.120;2023-08-31T01:50:11;3.40;;;3.10;;
60726;SDS011;46577;49.004;12.120;2023-08-31T01:52:37;6.50;;;3.37;;
60726;SDS011;46577;49.004;12.120;2023-08-31T01:55:03;3.57;;;2.90;;
60726;SDS011;46577;49.004;12.120;2023-08-31T01:57:30;4.80;;;3.60;;
60726;SDS011;46577;49.004;12.120;2023-08-31T01:59:57;4.27;;;3.40;;
60726;SDS011;46577;49.004;12.120;2023-08-31T02:02:23;3.93;;;3.00;;
60726;SDS011;46577;49.004;12.120;2023-08-31T02:04:49;3.20;;;2.90;;
60726;SDS011;46577;49.004;12.120;2023-08-31T02:07:18;6.40;;;3.90;;
60726;SDS011;46577;49.004;12.120;2023-08-31T02:09:44;4.07;;;3.20;;
60726;SDS011;46577;49.004;12.120;2023-08-31T02:12:10;3.27;;;2.97;;
60726;SDS011;46577;49.004;12.120;2023-08-31T02:14:36;5.37;;;3.30;;
60726;SDS011;46577;49.004;12.120;2023-08-31T02:17:03;4.60;;;3.40;;
60726;SDS011;46577;49.004;12.120;2023-08-31T02:19:29;4.53;;;3.70;;
60726;SDS011;46577;49.004;12.120;2023-08-31T02:21:55;3.87;;;3.07;;
60726;SDS011;46577;49.004;12.120;2023-08-31T02:24:21;3.40;;;3.10;;
60726;SDS011;46577;49.004;12.120;2023-08-31T02:26:48;4.50;;;3.70;;
60726;SDS011;46577;49.004;12.120;2023-08-31T02:29:14;5.53;;;3.80;;
60726;SDS011;46577;49.004;12.120;2023-08-31T02:31:40;4.10;;;3.67;;
60726;SDS011;46577;49.004;12.120;2023-08-31T02:34:06;4.53;;;3.67;;
60726;SDS011;46577;49.004;12.120;2023-08-31T02:36:32;5.77;;;3.70;;
60726;SDS011;46577;49.004;12.120;2023-08-31T02:38:58;5.23;;;3.50;;
60726;SDS011;46577;49.004;12.120;2023-08-31T02:41:24;5.10;;;4.00;;
60726;SDS011;46577;49.004;12.120;2023-08-31T02:43:51;5.23;;;4.13;;
60726;SDS011;46577;49.004;12.120;2023-08-31T02:46:17;6.00;;;3.80;;
60726;SDS011;46577;49.004;12.120;2023-08-31T02:48:43;7.47;;;4.57;;
60726;SDS011;46577;49.004;12.120;2023-08-31T02:51:09;5.33;;;4.13;;
60726;SDS011;46577;49.004;12.120;2023-08-31T02:53:35;4.27;;;3.97;;
60726;SDS011;46577;49.004;12.120;2023-08-31T02:56:01;6.20;;;4.33;;
60726;SDS011;46577;49.004;12.120;2023-08-31T02:58:27;5.30;;;4.57;;
60726;SDS011;46577;49.004;12.120;2023-08-31T03:00:53;5.00;;;4.50;;
60726;SDS011;46577;49.004;12.120;2023-08-31T03:03:20;7.00;;;5.43;;
60726;SDS011;46577;49.004;12.120;2023-08-31T03:05:46;14.57;;;5.37;;
60726;SDS011;46577;49.004;12.120;2023-08-31T03:08:12;8.53;;;5.50;;
60726;SDS011;46577;49.004;12.120;2023-08-31T03:10:39;10.37;;;4.80;;
60726;SDS011;46577;49.004;12.120;2023-08-31T03:13:05;7.30;;;5.80;;
60726;SDS011;46577;49.004;12.120;2023-08-31T03:15:34;8.60;;;5.40;;
60726;SDS011;46577;49.004;12.120;2023-08-31T03:18:00;7.87;;;5.40;;
60726;SDS011;46577;49.004;12.120;2023-08-31T03:20:26;6.30;;;5.27;;
60726;SDS011;46577;49.004;12.120;2023-08-31T03:22:52;5.77;;;5.17;;
60726;SDS011;46577;49.004;12.120;2023-08-31T03:25:19;5.60;;;5.10;;
60726;SDS011;46577;49.004;12.120;2023-08-31T03:27:45;6.73;;;5.60;;
60726;SDS011;46577;49.004;12.120;2023-08-31T03:30:12;5.83;;;5.23;;
60726;SDS011;46577;49.004;12.120;2023-08-31T03:32:38;6.77;;;6.07;;
60726;SDS011;46577;49.004;12.120;2023-08-31T03:35:04;8.43;;;5.67;;
60726;SDS011;46577;49.004;12.120;2023-08-31T03:37:30;7.53;;;5.90;;
60726;SDS011;46577;49.004;12.120;2023-08-31T03:39:56;7.23;;;6.53;;
60726;SDS011;46577;49.004;12.120;2023-08-31T03:42:22;12.63;;;6.90;;
60726;SDS011;46577;49.004;12.120;2023-08-31T03:44:48;8.47;;;7.10;;
60726;SDS011;46577;49.004;12.120;2023-08-31T03:47:14;7.60;;;6.80;;
60726;SDS011;46577;49.004;12.120;2023-08-31T03:49:40;8.33;;;6.50;;
60726;SDS011;46577;49.004;12.120;2023-08-31T03:52:06;8.33;;;7.20;;
60726;SDS011;46577;49.004;12.120;2023-08-31T03:54:32;10.77;;;7.00;;
60726;SDS011;46577;49.004;12.120;2023-08-31T03:56:58;8.87;;;7.30;;
60726;SDS011;46577;49.004;12.120;2023-08-31T03:59:24;10.03;;;7.87;;
60726;SDS011;46577;49.004;12.120;2023-08-31T04:01:50;13.50;;;8.40;;
60726;SDS011;46577;49.004;12.120;2023-08-31T04:04:16;10.30;;;8.17;;
60726;SDS011;46577;49.004;12.120;2023-08-31T04:06:42;22.80;;;7.60;;
60726;SDS011;46577;49.004;12.120;2023-08-31T04:09:08;11.50;;;9.40;;
60726;SDS011;46577;49.004;12.120;2023-08-31T04:11:34;12.53;;;8.13;;
60726;SDS011;46577;49.004;12.120;2023-08-31T04:14:00;8.13;;;7.33;;
60726;SDS011;46577;49.004;12.120;2023-08-31T04:16:26;8.90;;;8.00;;
60726;SDS011;46577;49.004;12.120;2023-08-31T04:18:54;11.40;;;9.93;;
60726;SDS011;46577;49.004;12.120;2023-08-31T04:21:20;14.07;;;10.03;;
60726;SDS011;46577;49.004;12.120;2023-08-31T04:23:46;12.63;;;9.30;;
60726;SDS011;46577;49.004;12.120;2023-08-31T04:26:13;12.97;;;10.30;;
60726;SDS011;46577;49.004;12.120;2023-08-31T04:28:39;13.97;;;11.90;;
60726;SDS011;46577;49.004;12.120;2023-08-31T04:31:06;15.30;;;11.47;;
60726;SDS011;46577;49.004;12.120;2023-08-31T04:33:36;15.50;;;11.50;;
60726;SDS011;46577;49.004;12.120;2023-08-31T04:36:02;13.83;;;11.37;;
60726;SDS011;46577;49.004;12.120;2023-08-31T04:38:29;15.13;;;11.80;;
60726;SDS011;46577;49.004;12.120;2023-08-31T04:40:57;16.87;;;12.10;;
60726;SDS011;46577;49.004;12.120;2023-08-31T04:43:24;13.33;;;10.50;;
60726;SDS011;46577;49.004;12.120;2023-08-31T04:45:51;11.87;;;9.70;;
60726;SDS011;46577;49.004;12.120;2023-08-31T04:48:17;13.87;;;9.70;;
60726;SDS011;46577;49.004;12.120;2023-08-31T04:50:43;14.73;;;10.00;;
60726;SDS011;46577;49.004;12.120;2023-08-31T04:53:09;12.70;;;9.93;;
60726;SDS011;46577;49.004;12.120;2023-08-31T04:55:35;16.53;;;10.53;;
60726;SDS011;46577;49.004;12.120;2023-08-31T04:58:01;16.70;;;9.47;;
60726;SDS011;46577;49.004;12.120;2023-08-31T05:00:27;11.47;;;9.47;;
60726;SDS011;46577;49.004;12.120;2023-08-31T05:02:53;15.90;;;9.43;;
60726;SDS011;46577;49.004;12.120;2023-08-31T05:05:19;12.07;;;10.53;;
60726;SDS011;46577;49.004;12.120;2023-08-31T05:07:45;13.97;;;10.17;;
60726;SDS011;46577;49.004;12.120;2023-08-31T05:10:11;13.27;;;10.70;;
60726;SDS011;46577;49.004;12.120;2023-08-31T05:12:37;14.90;;;10.37;;
60726;SDS011;46577;49.004;12.120;2023-08-31T05:15:03;11.13;;;9.60;;
60726;SDS011;46577;49.004;12.120;2023-08-31T05:17:29;10.93;;;8.80;;
60726;SDS011;46577;49.004;12.120;2023-08-31T05:19:56;12.00;;;7.30;;
60726;SDS011;46577;49.004;12.120;2023-08-31T05:22:22;7.30;;;6.10;;
60726;SDS011;46577;49.004;12.120;2023-08-31T05:24:48;8.33;;;6.70;;
60726;SDS011;46577;49.004;12.120;2023-08-31T05:27:14;7.50;;;5.70;;
60726;SDS011;46577;49.004;12.120;2023-08-31T05:29:40;6.37;;;5.77;;
60726;SDS011;46577;49.004;12.120;2023-08-31T05:32:06;7.30;;;4.13;;
60726;SDS011;46577;49.004;12.120;2023-08-31T05:34:32;4.93;;;3.47;;
60726;SDS011;46577;49.004;12.120;2023-08-31T05:37:02;4.17;;;3.73;;
60726;SDS011;46577;49.004;12.120;2023-08-31T05:39:29;5.40;;;3.70;;
60726;SDS011;46577;49.004;12.120;2023-08-31T05:41:55;4.40;;;3.73;;
60726;SDS011;46577;49.004;12.120;2023-08-31T05:44:22;7.17;;;3.03;;
60726;SDS011;46577;49.004;12.120;2023-08-31T05:46:48;3.40;;;2.93;;
60726;SDS011;46577;49.004;12.120;2023-08-31T05:49:14;5.63;;;3.27;;
60726;SDS011;46577;49.004;12.120;2023-08-31T05:51:40;3.30;;;2.90;;
60726;SDS011;46577;49.004;12.120;2023-08-31T05:54:06;4.53;;;2.93;;
60726;SDS011;46577;49.004;12.120;2023-08-31T05:56:38;2.97;;;2.67;;
60726;SDS011;46577;49.004;12.120;2023-08-31T05:59:05;4.20;;;2.63;;
60726;SDS011;46577;49.004;12.120;2023-08-31T06:01:31;2.53;;;2.00;;
60726;SDS011;46577;49.004;12.120;2023-08-31T06:03:57;2.43;;;2.13;;
60726;SDS011;46577;49.004;12.120;2023-08-31T06:06:23;1.60;;;1.50;;
60726;SDS011;46577;49.004;12.120;2023-08-31T06:08:49;3.10;;;1.87;;
60726;SDS011;46577;49.004;12.120;2023-08-31T06:11:15;3.50;;;2.23;;
60726;SDS011;46577;49.004;12.120;2023-08-31T06:13:41;2.33;;;2.10;;
60726;SDS011;46577;49.004;12.120;2023-08-31T06:16:07;4.90;;;2.23;;
60726;SDS011;46577;49.004;12.120;2023-08-31T06:18:33;2.10;;;1.87;;
60726;SDS011;46577;49.004;12.120;2023-08-31T06:20:59;4.33;;;1.90;;
60726;SDS011;46577;49.004;12.120;2023-08-31T06:23:25;4.00;;;2.10;;
60726;SDS011;46577;49.004;12.120;2023-08-31T06:25:51;4.13;;;2.53;;
60726;SDS011;46577;49.004;12.120;2023-08-31T06:28:17;6.23;;;2.20;;
60726;SDS011;46577;49.004;12.120;2023-08-31T06:30:43;4.03;;;1.93;;
60726;SDS011;46577;49.004;12.120;2023-08-31T06:33:15;4.93;;;2.47;;
60726;SDS011;46577;49.004;12.120;2023-08-31T06:35:42;7.47;;;2.30;;
60726;SDS011;46577;49.004;12.120;2023-08-31T06:38:08;3.40;;;1.90;;
60726;SDS011;46577;49.004;12.120;2023-08-31T06:40:34;5.90;;;2.43;;
60726;SDS011;46577;49.004;12.120;2023-08-31T06:43:00;4.80;;;2.40;;
60726;SDS011;46577;49.004;12.120;2023-08-31T06:45:28;4.40;;;2.20;;
60726;SDS011;46577;49.004;12.120;2023-08-31T06:47:54;5.20;;;1.60;;
60726;SDS011;46577;49.004;12.120;2023-08-31T06:50:20;10.47;;;2.73;;
60726;SDS011;46577;49.004;12.120;2023-08-31T06:52:46;6.30;;;1.93;;
60726;SDS011;46577;49.004;12.120;2023-08-31T06:55:12;8.83;;;2.73;;
60726;SDS011;46577;49.004;12.120;2023-08-31T06:57:38;5.67;;;2.40;;
60726;SDS011;46577;49.004;12.120;2023-08-31T07:00:04;3.87;;;2.10;;
60726;SDS011;46577;49.004;12.120;2023-08-31T07:02:32;5.60;;;2.53;;
60726;SDS011;46577;49.004;12.120;2023-08-31T07:04:59;3.40;;;1.93;;
60726;SDS011;46577;49.004;12.120;2023-08-31T07:07:26;3.70;;;1.73;;
60726;SDS011;46577;49.004;12.120;2023-08-31T07:09:52;6.80;;;2.67;;
60726;SDS011;46577;49.004;12.120;2023-08-31T07:12:19;4.60;;;2.03;;
60726;SDS011;46577;49.004;12.120;2023-08-31T07:14:45;5.83;;;1.83;;
60726;SDS011;46577;49.004;12.120;2023-08-31T07:17:11;9.63;;;2.30;;
60726;SDS011;46577;49.004;12.120;2023-08-31T07:19:37;4.00;;;2.47;;
60726;SDS011;46577;49.004;12.120;2023-08-31T07:22:03;3.70;;;1.70;;
60726;SDS011;46577;49.004;12.120;2023-08-31T07:24:31;4.30;;;2.07;;
60726;SDS011;46577;49.004;12.120;2023-08-31T07:26:57;3.80;;;1.90;;
60726;SDS011;46577;49.004;12.120;2023-08-31T07:29:23;4.20;;;2.70;;
60726;SDS011;46577;49.004;12.120;2023-08-31T07:31:49;2.50;;;1.70;;
60726;SDS011;46577;49.004;12.120;2023-08-31T07:34:15;6.93;;;3.03;;
60726;SDS011;46577;49.004;12.120;2023-08-31T07:36:41;5.77;;;2.30;;
60726;SDS011;46577;49.004;12.120;2023-08-31T07:39:08;3.67;;;2.13;;
60726;SDS011;46577;49.004;12.120;2023-08-31T07:41:34;4.47;;;1.93;;
60726;SDS011;46577;49.004;12.120;2023-08-31T07:44:00;4.57;;;2.37;;
60726;SDS011;46577;49.004;12.120;2023-08-31T07:46:28;11.73;;;2.03;;
60726;SDS011;46577;49.004;12.120;2023-08-31T07:48:54;4.63;;;2.00;;
60726;SDS011;46577;49.004;12.120;2023-08-31T07:51:20;5.90;;;2.00;;
60726;SDS011;46577;49.004;12.120;2023-08-31T07:53:48;3.80;;;1.90;;
60726;SDS011;46577;49.004;12.120;2023-08-31T07:56:14;4.90;;;2.60;;
60726;SDS011;46577;49.004;12.120;2023-08-31T07:58:40;4.20;;;2.10;;
60726;SDS011;46577;49.004;12.120;2023-08-31T08:01:06;4.50;;;1.80;;
60726;SDS011;46577;49.004;12.120;2023-08-31T08:03:32;5.70;;;1.70;;
60726;SDS011;46577;49.004;12.120;2023-08-31T08:05:58;5.80;;;1.77;;
60726;SDS011;46577;49.004;12.120;2023-08-31T08:08:24;6.13;;;1.73;;
60726;SDS011;46577;49.004;12.120;2023-08-31T08:10:53;8.30;;;1.80;;
60726;SDS011;46577;49.004;12.120;2023-08-31T08:13:19;3.47;;;1.40;;
60726;SDS011;46577;49.004;12.120;2023-08-31T08:15:45;5.10;;;1.70;;
60726;SDS011;46577;49.004;12.120;2023-08-31T08:18:12;4.23;;;1.60;;
60726;SDS011;46577;49.004;12.120;2023-08-31T08:20:38;2.95;;;1.50;;
60726;SDS011;46577;49.004;12.120;2023-08-31T08:23:05;1.52;;;1.33;;
60726;SDS011;46577;49.004;12.120;2023-08-31T08:25:31;7.20;;;1.90;;
60726;SDS011;46577;49.004;12.120;2023-08-31T08:27:57;4.23;;;1.40;;
60726;SDS011;46577;49.004;12.120;2023-08-31T08:30:23;3.20;;;1.80;;
60726;SDS011;46577;49.004;12.120;2023-08-31T08:32:49;3.17;;;1.57;;
60726;SDS011;46577;49.004;12.120;2023-08-31T08:35:15;3.57;;;1.47;;
60726;SDS011;46577;49.004;12.120;2023-08-31T08:37:41;4.53;;;1.90;;
60726;SDS011;46577;49.004;12.120;2023-08-31T08:40:07;4.90;;;2.10;;
60726;SDS011;46577;49.004;12.120;2023-08-31T08:42:35;5.23;;;1.63;;
60726;SDS011;46577;49.004;12.120;2023-08-31T08:45:03;5.47;;;2.13;;
60726;SDS011;46577;49.004;12.120;2023-08-31T08:47:31;2.23;;;1.80;;
60726;SDS011;46577;49.004;12.120;2023-08-31T08:49:58;3.37;;;1.93;;
60726;SDS011;46577;49.004;12.120;2023-08-31T08:52:25;5.80;;;2.03;;
60726;SDS011;46577;49.004;12.120;2023-08-31T08:54:52;3.00;;;1.37;;
60726;SDS011;46577;49.004;12.120;2023-08-31T08:57:18;2.10;;;1.40;;
60726;SDS011;46577;49.004;12.120;2023-08-31T08:59:44;1.83;;;1.10;;
60726;SDS011;46577;49.004;12.120;2023-08-31T09:02:10;3.00;;;1.53;;
60726;SDS011;46577;49.004;12.120;2023-08-31T09:04:39;2.67;;;1.40;;
60726;SDS011;46577;49.004;12.120;2023-08-31T09:07:05;3.60;;;1.97;;
60726;SDS011;46577;49.004;12.120;2023-08-31T09:09:31;4.30;;;2.13;;
60726;SDS011;46577;49.004;12.120;2023-08-31T09:12:05;6.03;;;1.97;;
60726;SDS011;46577;49.004;12.120;2023-08-31T09:14:32;3.87;;;2.40;;
60726;SDS011;46577;49.004;12.120;2023-08-31T09:16:58;4.60;;;2.00;;
60726;SDS011;46577;49.004;12.120;2023-08-31T09:19:25;6.53;;;2.00;;
60726;SDS011;46577;49.004;12.120;2023-08-31T09:21:55;6.17;;;2.40;;
60726;SDS011;46577;49.004;12.120;2023-08-31T09:24:21;2.10;;;1.87;;
60726;SDS011;46577;49.004;12.120;2023-08-31T09:26:50;3.43;;;2.30;;
60726;SDS011;46577;49.004;12.120;2023-08-31T09:29:17;3.00;;;1.67;;
60726;SDS011;46577;49.004;12.120;2023-08-31T09:31:43;4.03;;;1.77;;
60726;SDS011;46577;49.004;12.120;2023-08-31T09:34:10;4.80;;;1.80;;
60726;SDS011;46577;49.004;12.120;2023-08-31T09:36:36;7.47;;;2.10;;
60726;SDS011;46577;49.004;12.120;2023-08-31T09:39:03;5.60;;;2.10;;
60726;SDS011;46577;49.004;12.120;2023-08-31T09:41:29;3.40;;;2.40;;
60726;SDS011;46577;49.004;12.120;2023-08-31T09:43:55;6.83;;;2.27;;
60726;SDS011;46577;49.004;12.120;2023-08-31T09:46:21;8.57;;;1.90;;
60726;SDS011;46577;49.004;12.120;2023-08-31T09:48:48;2.93;;;1.87;;
60726;SDS011;46577;49.004;12.120;2023-08-31T09:51:14;1.73;;;1.33;;
60726;SDS011;46577;49.004;12.120;2023-08-31T09:53:42;4.07;;;1.13;;
60726;SDS011;46577;49.004;12.120;2023-08-31T09:56:12;3.90;;;1.70;;
60726;SDS011;46577;49.004;12.120;2023-08-31T09:58:38;6.73;;;1.70;;
60726;SDS011;46577;49.004;12.120;2023-08-31T10:01:04;2.80;;;1.87;;
60726;SDS011;46577;49.004;12.120;2023-08-31T10:03:31;6.60;;;2.30;;
60726;SDS011;46577;49.004;12.120;2023-08-31T10:05:57;2.43;;;1.50;;
60726;SDS011;46577;49.004;12.120;2023-08-31T10:08:24;5.40;;;2.13;;
60726;SDS011;46577;49.004;12.120;2023-08-31T10:10:51;4.27;;;1.63;;
60726;SDS011;46577;49.004;12.120;2023-08-31T10:13:17;2.83;;;1.70;;
60726;SDS011;46577;49.004;12.120;2023-08-31T10:15:44;5.93;;;2.33;;
60726;SDS011;46577;49.004;12.120;2023-08-31T10:18:10;4.73;;;1.90;;
60726;SDS011;46577;49.004;12.120;2023-08-31T10:20:37;3.10;;;1.93;;
60726;SDS011;46577;49.004;12.120;2023-08-31T10:23:06;6.17;;;2.00;;
60726;SDS011;46577;49.004;12.120;2023-08-31T10:31:03;6.53;;;2.10;;
60726;SDS011;46577;49.004;12.120;2023-08-31T10:36:15;5.50;;;2.00;;
60726;SDS011;46577;49.004;12.120;2023-08-31T10:38:42;2.40;;;1.77;;
60726;SDS011;46577;49.004;12.120;2023-08-31T10:41:17;3.63;;;1.90;;
60726;SDS011;46577;49.004;12.120;2023-08-31T10:43:47;6.47;;;2.47;;
60726;SDS011;46577;49.004;12.120;2023-08-31T10:46:26;5.43;;;2.33;;
60726;SDS011;46577;49.004;12.120;2023-08-31T10:48:53;15.83;;;2.20;;
60726;SDS011;46577;49.004;12.120;2023-08-31T10:51:29;2.33;;;1.40;;
60726;SDS011;46577;49.004;12.120;2023-08-31T10:54:12;8.10;;;2.20;;
60726;SDS011;46577;49.004;12.120;2023-08-31T10:57:14;6.73;;;2.10;;
60726;SDS011;46577;49.004;12.120;2023-08-31T11:02:26;4.60;;;2.40;;
60726;SDS011;46577;49.004;12.120;2023-08-31T11:05:09;6.53;;;1.50;;
60726;SDS011;46577;49.004;12.120;2023-08-31T11:07:36;5.07;;;2.00;;
60726;SDS011;46577;49.004;12.120;2023-08-31T11:10:07;5.40;;;1.80;;
60726;SDS011;46577;49.004;12.120;2023-08-31T11:12:34;4.07;;;2.10;;
60726;SDS011;46577;49.004;12.120;2023-08-31T11:15:00;4.50;;;2.13;;
60726;SDS011;46577;49.004;12.120;2023-08-31T11:17:26;4.63;;;2.07;;
60726;SDS011;46577;49.004;12.120;2023-08-31T11:19:52;3.50;;;1.63;;
60726;SDS011;46577;49.004;12.120;2023-08-31T11:22:18;3.97;;;2.13;;
60726;SDS011;46577;49.004;12.120;2023-08-31T11:24:44;5.63;;;2.13;;
60726;SDS011;46577;49.004;12.120;2023-08-31T11:27:12;3.87;;;1.60;;
60726;SDS011;46577;49.004;12.120;2023-08-31T11:29:42;2.60;;;1.80;;
60726;SDS011;46577;49.004;12.120;2023-08-31T11:32:09;8.80;;;2.30;;
60726;SDS011;46577;49.004;12.120;2023-08-31T11:34:35;5.77;;;1.60;;
60726;SDS011;46577;49.004;12.120;2023-08-31T11:37:01;10.47;;;2.00;;
60726;SDS011;46577;49.004;12.120;2023-08-31T11:39:28;4.37;;;1.40;;
60726;SDS011;46577;49.004;12.120;2023-08-31T11:41:54;5.73;;;1.73;;
60726;SDS011;46577;49.004;12.120;2023-08-31T11:44:20;2.37;;;1.30;;
60726;SDS011;46577;49.004;12.120;2023-08-31T11:46:46;3.70;;;1.87;;
60726;SDS011;46577;49.004;12.120;2023-08-31T11:49:15;3.63;;;1.43;;
60726;SDS011;46577;49.004;12.120;2023-08-31T11:51:41;2.33;;;1.30;;
60726;SDS011;46577;49.004;12.120;2023-08-31T11:54:08;3.03;;;1.27;;
60726;SDS011;46577;49.004;12.120;2023-08-31T11:56:42;2.23;;;0.90;;
60726;SDS011;46577;49.004;12.120;2023-08-31T11:59:08;3.13;;;1.57;;
60726;SDS011;46577;49.004;12.120;2023-08-31T12:01:37;3.00;;;1.37;;
60726;SDS011;46577;49.004;12.120;2023-08-31T12:04:09;2.27;;;1.50;;
60726;SDS011;46577;49.004;12.120;2023-08-31T12:06:35;5.47;;;1.40;;
60726;SDS011;46577;49.004;12.120;2023-08-31T12:09:01;2.60;;;1.33;;
60726;SDS011;46577;49.004;12.120;2023-08-31T12:11:29;4.27;;;1.50;;
60726;SDS011;46577;49.004;12.120;2023-08-31T12:13:59;5.30;;;1.80;;
60726;SDS011;46577;49.004;12.120;2023-08-31T12:16:31;4.20;;;1.40;;
60726;SDS011;46577;49.004;12.120;2023-08-31T12:18:58;3.00;;;1.60;;
60726;SDS011;46577;49.004;12.120;2023-08-31T12:21:25;3.33;;;2.00;;
60726;SDS011;46577;49.004;12.120;2023-08-31T12:23:51;5.43;;;1.87;;
60726;SDS011;46577;49.004;12.120;2023-08-31T12:26:16;3.30;;;1.90;;
60726;SDS011;46577;49.004;12.120;2023-08-31T12:28:43;4.87;;;2.07;;
60726;SDS011;46577;49.004;12.120;2023-08-31T12:31:08;4.07;;;1.87;;
60726;SDS011;46577;49.004;12.120;2023-08-31T12:33:35;3.37;;;1.90;;
60726;SDS011;46577;49.004;12.120;2023-08-31T12:36:00;6.57;;;2.37;;
60726;SDS011;46577;49.004;12.120;2023-08-31T12:38:27;3.90;;;2.03;;
60726;SDS011;46577;49.004;12.120;2023-08-31T12:40:53;9.80;;;1.93;;
60726;SDS011;46577;49.004;12.120;2023-08-31T12:43:19;5.90;;;2.20;;
60726;SDS011;46577;49.004;12.120;2023-08-31T12:45:45;8.63;;;2.50;;
60726;SDS011;46577;49.004;12.120;2023-08-31T12:48:11;5.63;;;2.03;;
60726;SDS011;46577;49.004;12.120;2023-08-31T12:50:37;6.03;;;2.07;;
60726;SDS011;46577;49.004;12.120;2023-08-31T12:53:03;5.93;;;2.40;;
60726;SDS011;46577;49.004;12.120;2023-08-31T12:55:29;4.73;;;1.80;;
60726;SDS011;46577;49.004;12.120;2023-08-31T12:57:55;4.53;;;2.07;;
60726;SDS011;46577;49.004;12.120;2023-08-31T13:00:22;3.97;;;1.90;;
60726;SDS011;46577;49.004;12.120;2023-08-31T13:02:49;1.97;;;1.70;;
60726;SDS011;46577;49.004;12.120;2023-08-31T13:05:16;3.97;;;1.93;;
60726;SDS011;46577;49.004;12.120;2023-08-31T13:07:42;5.60;;;2.23;;
60726;SDS011;46577;49.004;12.120;2023-08-31T13:10:08;4.10;;;1.90;;
60726;SDS011;46577;49.004;12.120;2023-08-31T13:12:34;5.60;;;2.30;;
60726;SDS011;46577;49.004;12.120;2023-08-31T13:15:02;6.93;;;2.20;;
60726;SDS011;46577;49.004;12.120;2023-08-31T13:17:28;2.73;;;1.60;;
60726;SDS011;46577;49.004;12.120;2023-08-31T13:19:54;3.83;;;2.27;;
60726;SDS011;46577;49.004;12.120;2023-08-31T13:22:21;7.50;;;2.93;;
60726;SDS011;46577;49.004;12.120;2023-08-31T13:24:47;2.43;;;1.60;;
60726;SDS011;46577;49.004;12.120;2023-08-31T13:27:13;3.07;;;2.33;;
60726;SDS011;46577;49.004;12.120;2023-08-31T13:29:39;5.23;;;2.50;;
60726;SDS011;46577;49.004;12.120;2023-08-31T13:32:05;3.93;;;2.00;;
60726;SDS011;46577;49.004;12.120;2023-08-31T13:34:32;3.40;;;2.10;;
60726;SDS011;46577;49.004;12.120;2023-08-31T13:36:58;4.77;;;1.90;;
60726;SDS011;46577;49.004;12.120;2023-08-31T13:39:25;3.93;;;2.10;;
60726;SDS011;46577;49.004;12.120;2023-08-31T13:41:51;5.40;;;2.20;;
60726;SDS011;46577;49.004;12.120;2023-08-31T13:44:18;4.03;;;2.20;;
60726;SDS011;46577;49.004;12.120;2023-08-31T13:46:45;4.47;;;2.40;;
60726;SDS011;46577;49.004;12.120;2023-08-31T13:49:11;7.77;;;2.33;;
60726;SDS011;46577;49.004;12.120;2023-08-31T13:51:37;4.53;;;2.23;;
60726;SDS011;46577;49.004;12.120;2023-08-31T13:54:04;3.30;;;2.10;;
60726;SDS011;46577;49.004;12.120;2023-08-31T13:56:30;5.97;;;2.20;;
60726;SDS011;46577;49.004;12.120;2023-08-31T13:58:55;3.60;;;1.93;;
60726;SDS011;46577;49.004;12.120;2023-08-31T14:01:22;5.67;;;2.00;;
60726;SDS011;46577;49.004;12.120;2023-08-31T14:03:48;7.63;;;2.27;;
60726;SDS011;46577;49.004;12.120;2023-08-31T14:06:14;5.53;;;2.03;;
60726;SDS011;46577;49.004;12.120;2023-08-31T14:08:40;6.47;;;1.87;;
60726;SDS011;46577;49.004;12.120;2023-08-31T14:11:06;4.70;;;1.73;;
60726;SDS011;46577;49.004;12.120;2023-08-31T14:13:32;6.73;;;1.97;;
60726;SDS011;46577;49.004;12.120;2023-08-31T14:15:59;5.20;;;2.53;;
60726;SDS011;46577;49.004;12.120;2023-08-31T14:18:26;4.43;;;2.20;;
60726;SDS011;46577;49.004;12.120;2023-08-31T14:20:54;4.70;;;1.90;;
60726;SDS011;46577;49.004;12.120;2023-08-31T14:23:20;10.73;;;2.87;;
60726;SDS011;46577;49.004;12.120;2023-08-31T14:25:46;3.83;;;2.40;;
60726;SDS011;46577;49.004;12.120;2023-08-31T14:28:12;2.60;;;1.80;;
60726;SDS011;46577;49.004;12.120;2023-08-31T14:30:38;6.00;;;2.57;;
60726;SDS011;46577;49.004;12.120;2023-08-31T14:33:04;8.30;;;3.67;;
60726;SDS011;46577;49.004;12.120;2023-08-31T14:35:30;4.17;;;2.47;;
60726;SDS011;46577;49.004;12.120;2023-08-31T14:37:56;5.40;;;2.57;;
60726;SDS011;46577;49.004;12.120;2023-08-31T14:40:23;2.77;;;2.20;;
60726;SDS011;46577;49.004;12.120;2023-08-31T14:42:49;4.70;;;2.50;;
60726;SDS011;46577;49.004;12.120;2023-08-31T14:45:15;3.50;;;2.10;;
60726;SDS011;46577;49.004;12.120;2023-08-31T14:47:41;5.50;;;2.63;;